Time;durP1;ratioP1;P1;durP2;ratioP2;P2;SDS_P1;SDS_P2;PMS_P1;PMS_P2;Temp;Humidity;BMP_temperature;BMP_pressure;BME280_temperature;BME280_humidity;BME280_pressure;Samples;Min_cycle;Max_cycle;Signal;HPM_P1;HPM_P2
2022/03/10 00:00:47;;;;;;;21.50;10.50;;;2.10;38.10;;;;;;5089830;28;20443;-67
2022/03/10 00:03:17;;;;;;;22.13;11.70;;;1.90;53.30;;;;;;5090898;28;20554;-67
2022/03/10 00:05:44;;;;;;;18.83;11.70;;;1.90;67.40;;;;;;5090557;28;20667;-67
2022/03/10 00:08:11;;;;;;;20.60;11.77;;;2.10;72.60;;;;;;5090637;28;20447;-67
2022/03/10 00:10:38;;;;;;;23.53;12.80;;;2.10;64.60;;;;;;5089406;28;20884;-67
2022/03/10 00:13:05;;;;;;;23.23;13.70;;;2.20;67.60;;;;;;5091015;28;20489;-67
2022/03/10 00:15:32;;;;;;;20.10;12.63;;;2.10;66.50;;;;;;5090578;28;20985;-67
2022/03/10 00:18:02;;;;;;;20.93;11.77;;;1.90;81.40;;;;;;5090904;28;20540;-67
2022/03/10 00:20:30;;;;;;;19.77;10.47;;;1.80;91.50;;;;;;5090081;28;20500;-67
2022/03/10 00:22:57;;;;;;;25.20;14.03;;;1.80;95.00;;;;;;5091491;28;20448;-67
2022/03/10 00:25:24;;;;;;;29.27;12.20;;;1.70;99.90;;;;;;5090061;28;20463;-67
2022/03/10 00:27:51;;;;;;;20.77;11.80;;;1.60;99.90;;;;;;5091598;28;20536;-67
2022/03/10 00:30:18;;;;;;;26.63;13.40;;;1.70;99.90;;;;;;5090316;28;20537;-67
2022/03/10 00:32:47;;;;;;;30.57;13.50;;;1.70;99.90;;;;;;5090149;28;20460;-67
2022/03/10 00:35:19;;;;;;;21.07;12.70;;;1.60;99.90;;;;;;5090669;28;20483;-68
2022/03/10 00:37:47;;;;;;;20.53;12.17;;;1.50;99.90;;;;;;5090559;28;20827;-67
2022/03/10 00:40:15;;;;;;;22.87;12.97;;;1.50;99.90;;;;;;5089648;28;20447;-67
2022/03/10 00:42:43;;;;;;;21.63;10.87;;;1.40;99.90;;;;;;5088229;28;20479;-66
2022/03/10 00:45:12;;;;;;;18.77;11.50;;;1.50;99.90;;;;;;5090198;28;20450;-67
2022/03/10 00:47:39;;;;;;;16.10;10.70;;;1.40;99.90;;;;;;5089701;28;20527;-66
2022/03/10 00:50:08;;;;;;;20.57;11.97;;;1.40;99.90;;;;;;5078178;28;20459;-66
2022/03/10 00:52:40;;;;;;;28.10;12.07;;;1.30;99.90;;;;;;5089645;28;20540;-67
2022/03/10 00:55:10;;;;;;;29.77;13.40;;;1.40;99.90;;;;;;5089797;28;20522;-67
2022/03/10 00:57:37;;;;;;;26.43;12.60;;;1.40;99.90;;;;;;5089867;28;20440;-66
2022/03/10 01:00:05;;;;;;;23.43;13.40;;;1.50;99.90;;;;;;5089423;28;20452;-68
2022/03/10 01:02:32;;;;;;;24.50;12.27;;;1.50;99.90;;;;;;5090004;28;20459;-67
2022/03/10 01:04:59;;;;;;;26.30;12.70;;;1.60;99.90;;;;;;5090532;28;20810;-68
2022/03/10 01:07:26;;;;;;;21.47;11.23;;;1.60;99.90;;;;;;5090074;28;20955;-68
2022/03/10 01:09:53;;;;;;;25.47;12.10;;;1.70;99.90;;;;;;5088912;28;20522;-68
2022/03/10 01:12:21;;;;;;;24.73;12.60;;;1.60;99.90;;;;;;5090326;28;20874;-68
2022/03/10 01:14:48;;;;;;;19.17;12.87;;;1.70;99.90;;;;;;5089322;28;20568;-68
2022/03/10 01:17:15;;;;;;;21.10;12.70;;;1.70;99.90;;;;;;5091246;28;20481;-67
2022/03/10 01:19:42;;;;;;;21.77;12.20;;;1.70;99.90;;;;;;5092357;28;20544;-66
2022/03/10 01:22:09;;;;;;;24.13;13.40;;;1.80;99.90;;;;;;5094238;28;20560;-67
2022/03/10 01:24:36;;;;;;;22.27;13.50;;;1.60;99.90;;;;;;5092870;28;20452;-67
2022/03/10 01:27:03;;;;;;;19.60;12.57;;;1.50;99.90;;;;;;5093820;28;20953;-67
2022/03/10 01:29:31;;;;;;;22.00;11.63;;;1.50;99.90;;;;;;5094034;28;20542;-67
2022/03/10 01:31:58;;;;;;;20.87;12.47;;;1.50;99.90;;;;;;5077004;28;20453;-67
2022/03/10 01:34:25;;;;;;;23.17;11.90;;;1.40;99.90;;;;;;5094383;28;20452;-68
2022/03/10 01:36:52;;;;;;;17.67;11.40;;;1.50;99.90;;;;;;5094488;28;20910;-66
2022/03/10 01:39:19;;;;;;;19.10;11.00;;;1.40;99.90;;;;;;5094281;28;20454;-66
2022/03/10 01:41:46;;;;;;;18.43;10.13;;;1.30;99.90;;;;;;5092066;28;20461;-66
2022/03/10 01:44:13;;;;;;;21.03;11.70;;;1.40;99.90;;;;;;5084742;28;20448;-66
2022/03/10 01:46:41;;;;;;;24.73;11.73;;;1.30;99.90;;;;;;5093780;28;20459;-66
2022/03/10 01:49:09;;;;;;;19.63;11.60;;;1.30;99.90;;;;;;5093531;28;20507;-66
2022/03/10 01:51:36;;;;;;;23.43;11.90;;;1.40;99.90;;;;;;5092958;28;20453;-66
2022/03/10 01:54:04;;;;;;;26.40;13.97;;;1.20;99.90;;;;;;5093353;28;20480;-66
2022/03/10 01:56:32;;;;;;;24.10;11.77;;;1.00;99.90;;;;;;5087333;28;20483;-66
2022/03/10 01:59:02;;;;;;;22.30;13.30;;;1.10;99.90;;;;;;5093280;28;20515;-67
2022/03/10 02:01:29;;;;;;;21.07;12.00;;;1.10;99.90;;;;;;5091986;28;20782;-67
2022/03/10 02:03:58;;;;;;;17.03;11.20;;;1.20;99.90;;;;;;5093359;28;20463;-67
2022/03/10 02:06:25;;;;;;;22.90;11.73;;;1.30;99.90;;;;;;5093107;28;20446;-67
2022/03/10 02:11:38;;;;;;;21.37;11.80;;;1.20;99.90;;;;;;5092332;28;20514;-67
2022/03/10 02:19:31;;;;;;;23.30;10.83;;;0.90;99.90;;;;;;5092590;28;21068;-67
2022/03/10 02:22:06;;;;;;;23.50;12.00;;;1.00;99.90;;;;;;5092876;28;20452;-67
2022/03/10 02:24:34;;;;;;;19.87;11.67;;;1.00;99.90;;;;;;5088724;28;20451;-67
2022/03/10 02:27:01;;;;;;;22.13;13.13;;;1.10;99.90;;;;;;5093092;28;20476;-67
2022/03/10 02:29:28;;;;;;;19.40;11.27;;;1.00;99.90;;;;;;5091661;28;20483;-67
2022/03/10 02:31:55;;;;;;;22.10;11.47;;;1.10;99.90;;;;;;5092499;28;20459;-67
2022/03/10 02:34:23;;;;;;;20.13;10.97;;;1.00;99.90;;;;;;5092349;28;20545;-67
2022/03/10 02:36:50;;;;;;;20.17;11.20;;;0.90;99.90;;;;;;5093309;28;20478;-67
2022/03/10 02:39:18;;;;;;;19.50;12.40;;;0.90;99.90;;;;;;5092907;28;20528;-67
2022/03/10 02:41:45;;;;;;;21.63;10.70;;;0.90;99.90;;;;;;5091863;28;20446;-67
2022/03/10 02:44:12;;;;;;;20.30;11.80;;;0.80;99.90;;;;;;5084201;28;20454;-67
2022/03/10 02:46:39;;;;;;;15.60;9.97;;;0.80;99.90;;;;;;5084928;28;20480;-67
2022/03/10 02:49:06;;;;;;;25.20;11.27;;;0.80;99.90;;;;;;5079073;28;20457;-67
2022/03/10 02:51:32;;;;;;;18.10;10.17;;;0.80;99.90;;;;;;5091731;28;20524;-67
2022/03/10 02:53:59;;;;;;;17.37;9.97;;;0.80;99.90;;;;;;5091562;28;20994;-67
2022/03/10 02:56:28;;;;;;;18.67;11.57;;;0.60;99.90;;;;;;5091481;28;20482;-67
2022/03/10 02:58:55;;;;;;;19.53;11.23;;;0.60;1.00;;;;;;5088596;28;20450;-67
2022/03/10 03:01:22;;;;;;;20.20;10.70;;;0.60;1.00;;;;;;5081072;28;20448;-67
2022/03/10 03:03:48;;;;;;;21.10;11.13;;;0.60;1.00;;;;;;5091405;28;20454;-68
2022/03/10 03:06:15;;;;;;;20.70;11.80;;;0.70;99.90;;;;;;5091851;28;20511;-68
2022/03/10 03:08:42;;;;;;;20.63;9.93;;;0.70;99.90;;;;;;5091785;28;20456;-68
2022/03/10 03:11:10;;;;;;;22.20;11.17;;;0.60;1.00;;;;;;5091186;28;20498;-67
2022/03/10 03:13:38;;;;;;;19.37;10.83;;;0.80;99.90;;;;;;5091416;28;20459;-68
2022/03/10 03:16:06;;;;;;;17.53;10.93;;;0.70;99.90;;;;;;5092073;28;20475;-67
2022/03/10 03:18:33;;;;;;;16.57;10.37;;;0.60;99.90;;;;;;5091757;28;20446;-68
2022/03/10 03:21:00;;;;;;;21.93;10.43;;;0.70;1.00;;;;;;5091782;28;20459;-66
2022/03/10 03:23:27;;;;;;;23.13;10.77;;;0.80;99.90;;;;;;5091309;28;20538;-67
2022/03/10 03:25:54;;;;;;;19.00;11.77;;;0.90;99.90;;;;;;5091620;28;20449;-66
2022/03/10 03:28:21;;;;;;;17.90;10.87;;;0.80;99.90;;;;;;5092100;28;20823;-67
2022/03/10 03:30:49;;;;;;;17.60;10.10;;;0.80;99.90;;;;;;5089523;28;20536;-67
2022/03/10 03:33:16;;;;;;;14.77;10.20;;;0.90;99.90;;;;;;5091992;28;20451;-67
2022/03/10 03:35:43;;;;;;;19.83;11.10;;;0.80;99.90;;;;;;5091000;28;20485;-68
2022/03/10 03:38:11;;;;;;;21.23;11.53;;;0.80;99.90;;;;;;5091707;28;20461;-67
2022/03/10 03:40:39;;;;;;;15.90;10.13;;;1.00;99.90;;;;;;5089366;28;20442;-68
2022/03/10 03:43:05;;;;;;;12.93;9.20;;;0.70;99.90;;;;;;5090732;28;20455;-68
2022/03/10 03:45:33;;;;;;;20.73;11.40;;;0.50;99.90;;;;;;5090368;28;20465;-69
2022/03/10 03:48:01;;;;;;;18.23;9.87;;;0.50;1.00;;;;;;5091234;28;20985;-67
2022/03/10 03:50:28;;;;;;;23.57;10.87;;;0.40;1.00;;;;;;5090467;28;20455;-68
2022/03/10 03:52:54;;;;;;;19.70;10.03;;;0.30;1.00;;;;;;5090650;28;20537;-66
2022/03/10 03:55:21;;;;;;;18.97;10.10;;;0.30;1.00;;;;;;5091183;28;20539;-67
2022/03/10 03:57:48;;;;;;;19.07;11.07;;;0.30;1.00;;;;;;5091122;28;20448;-67
2022/03/10 04:00:16;;;;;;;21.63;9.77;;;0.20;1.00;;;;;;5090228;28;20527;-68
2022/03/10 04:02:43;;;;;;;18.07;10.50;;;0.10;1.00;;;;;;5089671;28;20539;-68
2022/03/10 04:05:12;;;;;;;20.07;12.10;;;0.20;1.00;;;;;;5084449;28;20447;-68
2022/03/10 04:07:40;;;;;;;14.97;9.73;;;0.50;1.00;;;;;;5090726;28;20453;-68
2022/03/10 04:10:08;;;;;;;19.73;8.20;;;0.60;1.00;;;;;;5089541;28;21122;-68
2022/03/10 04:12:36;;;;;;;18.73;10.57;;;0.60;1.00;;;;;;5085104;28;20448;-68
2022/03/10 04:15:04;;;;;;;18.33;10.23;;;0.70;1.00;;;;;;5078131;28;20446;-68
2022/03/10 04:17:31;;;;;;;17.50;10.17;;;0.50;1.00;;;;;;5079375;28;20484;-68
2022/03/10 04:19:59;;;;;;;16.23;10.23;;;0.50;1.00;;;;;;5091202;28;20534;-68
2022/03/10 04:22:27;;;;;;;19.07;9.77;;;0.30;1.00;;;;;;5090702;28;20456;-68
2022/03/10 04:24:54;;;;;;;19.87;10.97;;;0.60;1.00;;;;;;5090888;28;20452;-68
2022/03/10 04:27:21;;;;;;;15.17;9.63;;;0.60;1.00;;;;;;5091643;28;20873;-67
2022/03/10 04:29:47;;;;;;;19.93;9.60;;;0.60;1.00;;;;;;5085826;28;20549;-68
2022/03/10 04:32:15;;;;;;;19.20;10.80;;;0.60;1.00;;;;;;5091196;28;20546;-68
2022/03/10 04:34:42;;;;;;;23.60;11.67;;;0.60;1.00;;;;;;5089448;28;20448;-68
2022/03/10 04:37:09;;;;;;;18.17;10.83;;;0.60;1.00;;;;;;5089946;28;20489;-69
2022/03/10 04:39:37;;;;;;;16.57;9.57;;;0.60;1.00;;;;;;5083518;28;20622;-67
2022/03/10 04:42:04;;;;;;;15.70;9.73;;;0.60;1.00;;;;;;5088777;28;20497;-67
2022/03/10 04:44:31;;;;;;;18.90;9.93;;;0.60;1.00;;;;;;5079012;28;20480;-68
2022/03/10 04:46:58;;;;;;;19.87;11.17;;;0.60;1.00;;;;;;5090988;28;20510;-68
2022/03/10 04:49:26;;;;;;;17.43;9.93;;;0.60;1.00;;;;;;5089948;28;20446;-68
2022/03/10 04:51:53;;;;;;;16.50;9.63;;;0.50;1.00;;;;;;5091275;28;20828;-68
2022/03/10 04:54:19;;;;;;;16.90;10.20;;;0.50;1.00;;;;;;5092375;28;20508;-68
2022/03/10 04:56:48;;;;;;;13.87;9.13;;;0.60;1.00;;;;;;5089658;28;21194;-69
2022/03/10 04:59:15;;;;;;;18.87;10.10;;;0.40;1.00;;;;;;5094717;28;20443;-67
2022/03/10 05:01:42;;;;;;;17.50;11.30;;;0.50;1.00;;;;;;5093780;28;20445;-68
2022/03/10 05:04:09;;;;;;;16.20;9.40;;;0.50;1.00;;;;;;5094864;28;20478;-69
2022/03/10 05:06:36;;;;;;;17.97;9.67;;;0.50;1.00;;;;;;5094024;28;21013;-69
2022/03/10 05:09:02;;;;;;;18.07;9.60;;;0.40;1.00;;;;;;5095194;28;20454;-68
2022/03/10 05:11:29;;;;;;;18.03;10.40;;;0.40;1.00;;;;;;5093332;28;20455;-67
2022/03/10 05:13:57;;;;;;;19.03;10.20;;;0.50;1.00;;;;;;5094522;28;20456;-67
2022/03/10 05:16:24;;;;;;;14.63;9.53;;;0.50;1.00;;;;;;5094393;28;21071;-68
2022/03/10 05:18:54;;;;;;;13.93;9.47;;;0.50;1.00;;;;;;5094670;28;20554;-68
2022/03/10 05:21:20;;;;;;;19.27;9.50;;;0.50;1.00;;;;;;5094514;28;20550;-68
2022/03/10 05:23:47;;;;;;;19.80;10.10;;;0.40;1.00;;;;;;5094000;28;20974;-68
2022/03/10 05:26:14;;;;;;;15.53;10.53;;;0.40;1.00;;;;;;5087937;28;20981;-68
2022/03/10 05:28:41;;;;;;;20.10;10.60;;;0.40;1.00;;;;;;5086073;28;20974;-68
2022/03/10 05:31:09;;;;;;;21.40;10.30;;;0.40;1.00;;;;;;5094303;28;20454;-68
2022/03/10 05:33:36;;;;;;;17.97;10.13;;;0.30;1.00;;;;;;5094102;28;20449;-67
2022/03/10 05:36:03;;;;;;;16.20;9.33;;;0.20;1.00;;;;;;5094006;28;20525;-68
2022/03/10 05:38:30;;;;;;;15.80;9.37;;;0.10;1.00;;;;;;5093681;28;20458;-66
2022/03/10 05:40:57;;;;;;;20.50;11.10;;;0.20;1.00;;;;;;5080235;28;20534;-67
2022/03/10 05:43:24;;;;;;;18.30;9.87;;;0.20;1.00;;;;;;5094123;28;20452;-66
2022/03/10 05:45:51;;;;;;;18.60;10.37;;;0.20;1.00;;;;;;5094054;28;20510;-67
2022/03/10 05:48:19;;;;;;;20.87;11.43;;;0.10;1.00;;;;;;5094158;28;20447;-67
2022/03/10 05:50:46;;;;;;;18.40;10.40;;;0.00;1.00;;;;;;5093399;28;20459;-67
2022/03/10 05:53:13;;;;;;;21.10;9.90;;;0.20;1.00;;;;;;5093962;28;20489;-67
2022/03/10 05:55:40;;;;;;;15.13;9.17;;;0.20;1.00;;;;;;5093006;28;20439;-67
2022/03/10 05:58:07;;;;;;;19.93;10.67;;;0.30;1.00;;;;;;5093776;28;20521;-66
2022/03/10 06:00:34;;;;;;;17.17;9.30;;;0.30;1.00;;;;;;5092816;28;20448;-67
2022/03/10 06:03:01;;;;;;;21.37;10.73;;;0.10;1.00;;;;;;5093186;28;20452;-66
2022/03/10 06:05:29;;;;;;;16.47;9.93;;;0.10;1.00;;;;;;5092947;28;20438;-66
2022/03/10 06:07:56;;;;;;;21.43;10.63;;;0.30;1.00;;;;;;5093672;28;20534;-67
2022/03/10 06:10:24;;;;;;;27.03;11.80;;;0.30;1.00;;;;;;5093466;28;20490;-67
2022/03/10 06:12:51;;;;;;;15.90;10.13;;;0.20;1.00;;;;;;5093569;28;20543;-67
2022/03/10 06:15:18;;;;;;;20.50;9.77;;;0.20;1.00;;;;;;5093553;28;20447;-67
2022/03/10 06:17:45;;;;;;;16.57;9.90;;;0.30;1.00;;;;;;5092643;28;20567;-66
2022/03/10 06:20:12;;;;;;;18.77;11.00;;;0.20;1.00;;;;;;5093561;28;20544;-66
2022/03/10 06:22:40;;;;;;;23.23;11.00;;;0.20;1.00;;;;;;5093002;28;20822;-67
2022/03/10 06:25:09;;;;;;;20.10;10.40;;;0.50;1.00;;;;;;5092982;28;20519;-66
2022/03/10 06:27:36;;;;;;;21.30;11.53;;;0.60;1.00;;;;;;5092891;28;20541;-66
2022/03/10 06:30:03;;;;;;;21.53;11.43;;;0.50;1.00;;;;;;5093861;28;20440;-66
2022/03/10 06:32:30;;;;;;;24.00;12.73;;;0.60;1.00;;;;;;5092588;28;20500;-67
2022/03/10 06:34:59;;;;;;;17.57;10.47;;;0.60;1.00;;;;;;5093102;28;20523;-67
2022/03/10 06:37:27;;;;;;;18.63;10.57;;;0.60;1.00;;;;;;5092736;28;20480;-67
2022/03/10 06:39:55;;;;;;;17.90;11.93;;;0.60;1.00;;;;;;5093212;28;20499;-67
2022/03/10 06:42:22;;;;;;;18.33;11.63;;;0.60;1.00;;;;;;5093253;28;20537;-67
2022/03/10 06:44:49;;;;;;;16.33;11.47;;;0.60;1.00;;;;;;5092155;28;20443;-67
2022/03/10 06:47:16;;;;;;;21.50;11.40;;;0.50;1.00;;;;;;5092989;28;20483;-67
2022/03/10 06:49:44;;;;;;;20.60;11.87;;;0.60;1.00;;;;;;5092134;28;20487;-67
2022/03/10 06:52:11;;;;;;;21.70;12.10;;;0.70;1.00;;;;;;5092823;28;20474;-67
2022/03/10 06:54:39;;;;;;;22.57;13.33;;;0.90;1.00;;;;;;5091654;28;20480;-67
2022/03/10 06:57:07;;;;;;;24.30;12.30;;;1.00;1.00;;;;;;5092162;28;20518;-67
2022/03/10 06:59:34;;;;;;;28.50;12.03;;;0.90;1.00;;;;;;5091784;28;20450;-67
2022/03/10 07:02:01;;;;;;;18.90;11.50;;;0.90;1.00;;;;;;5092622;28;20906;-67
2022/03/10 07:04:28;;;;;;;20.27;12.10;;;1.10;1.00;;;;;;5091366;28;20505;-67
2022/03/10 07:06:55;;;;;;;21.77;12.83;;;1.20;1.00;;;;;;5092927;28;20783;-67
2022/03/10 07:09:22;;;;;;;22.50;13.50;;;1.20;1.00;;;;;;5092787;28;20938;-67
2022/03/10 07:11:49;;;;;;;25.00;13.60;;;1.30;1.00;;;;;;5092676;28;20529;-67
2022/03/10 07:14:17;;;;;;;24.47;12.40;;;1.50;1.00;;;;;;5092161;28;20533;-67
2022/03/10 07:16:44;;;;;;;20.87;12.33;;;1.80;99.90;;;;;;5091595;28;20487;-67
2022/03/10 07:19:12;;;;;;;20.23;12.33;;;2.00;99.90;;;;;;5092588;28;20462;-67
2022/03/10 07:21:40;;;;;;;18.87;12.30;;;2.00;99.90;;;;;;5091679;28;20458;-66
2022/03/10 07:24:07;;;;;;;22.07;11.57;;;2.00;99.90;;;;;;5092510;28;20446;-66
2022/03/10 07:26:34;;;;;;;23.10;11.60;;;2.10;99.90;;;;;;5091222;28;20451;-67
2022/03/10 07:29:02;;;;;;;21.30;12.70;;;;;;;;;;5092426;28;20451;-66
2022/03/10 07:31:31;;;;;;;26.83;12.97;;;;;;;;;;5091433;28;20547;-68
2022/03/10 07:33:58;;;;;;;24.50;13.00;;;;;;;;;;5092018;28;20486;-67
2022/03/10 07:36:25;;;;;;;27.10;14.23;;;;;;;;;;5091366;28;20448;-67
2022/03/10 07:38:52;;;;;;;26.07;14.53;;;;;;;;;;5092125;28;20454;-67
2022/03/10 07:41:20;;;;;;;27.17;13.80;;;;;;;;;;5091945;28;20532;-67
2022/03/10 07:43:48;;;;;;;24.77;14.50;;;;;;;;;;5091099;28;21108;-67
2022/03/10 07:46:15;;;;;;;25.43;14.70;;;;;;;;;;5091541;28;20540;-67
2022/03/10 07:48:43;;;;;;;25.90;14.77;;;;;;;;;;5090675;28;20547;-67
2022/03/10 07:51:11;;;;;;;21.83;13.80;;;;;;;;;;5091878;28;20557;-67
2022/03/10 07:53:38;;;;;;;24.50;14.10;;;;;;;;;;5090747;28;20470;-67
2022/03/10 07:56:05;;;;;;;24.40;14.40;;;;;;;;;;5091209;28;20491;-67
2022/03/10 07:58:32;;;;;;;21.43;14.60;;;2.20;99.90;;;;;;5090450;28;20515;-67
2022/03/10 08:00:59;;;;;;;22.20;13.53;;;4.90;99.90;;;;;;5091488;28;20476;-67
2022/03/10 08:03:26;;;;;;;27.10;15.00;;;5.40;99.90;;;;;;5090940;28;20779;-67
2022/03/10 08:05:54;;;;;;;35.53;14.07;;;5.50;99.90;;;;;;5091359;28;20814;-67
2022/03/10 08:08:22;;;;;;;39.17;15.17;;;5.20;99.90;;;;;;5091949;28;20454;-67
2022/03/10 08:10:49;;;;;;;21.53;13.20;;;5.20;99.90;;;;;;5091477;28;20485;-67
2022/03/10 08:13:16;;;;;;;23.43;13.73;;;5.10;99.90;;;;;;5091157;28;20529;-67
2022/03/10 08:15:43;;;;;;;22.33;12.87;;;5.40;99.90;;;;;;5090318;28;20970;-67
2022/03/10 08:18:10;;;;;;;23.77;13.33;;;5.40;99.90;;;;;;5091362;28;20509;-67
2022/03/10 08:20:39;;;;;;;32.73;16.20;;;5.60;99.90;;;;;;5090883;28;20461;-67
2022/03/10 08:23:07;;;;;;;29.53;14.40;;;5.50;99.90;;;;;;5091178;28;20817;-67
2022/03/10 08:25:36;;;;;;;27.47;15.07;;;5.60;99.90;;;;;;5089745;28;20448;-67
2022/03/10 08:28:03;;;;;;;21.87;14.47;;;5.60;99.90;;;;;;5077989;28;20492;-68
2022/03/10 08:30:30;;;;;;;23.00;12.60;;;5.90;99.90;;;;;;5090653;28;20989;-66
2022/03/10 08:32:58;;;;;;;23.90;14.70;;;5.90;99.90;;;;;;5091161;28;20495;-67
2022/03/10 08:35:25;;;;;;;23.60;12.90;;;5.90;99.90;;;;;;5090148;28;20454;-69
2022/03/10 08:37:52;;;;;;;34.67;14.37;;;5.90;99.90;;;;;;5091239;28;20937;-68
2022/03/10 08:40:20;;;;;;;19.67;12.33;;;6.10;99.90;;;;;;5090740;28;20546;-68
2022/03/10 08:42:49;;;;;;;29.80;15.50;;;6.20;99.90;;;;;;5090257;28;20814;-67
2022/03/10 08:45:16;;;;;;;21.80;15.77;;;6.30;99.20;;;;;;5090410;28;20519;-69
2022/03/10 08:47:44;;;;;;;28.60;14.70;;;6.40;99.00;;;;;;5090264;28;20755;-68
2022/03/10 08:50:11;;;;;;;28.43;14.93;;;6.50;95.80;;;;;;5090760;28;20525;-68
2022/03/10 08:52:39;;;;;;;27.13;15.37;;;6.60;91.40;;;;;;5090279;28;20451;-67
2022/03/10 08:55:07;;;;;;;22.93;12.90;;;6.60;90.80;;;;;;5090529;28;21067;-67
2022/03/10 08:57:36;;;;;;;19.83;12.33;;;6.80;91.70;;;;;;5089863;28;20579;-67
2022/03/10 09:00:04;;;;;;;22.20;12.73;;;6.90;80.10;;;;;;5090752;28;20452;-67
2022/03/10 09:02:32;;;;;;;19.37;13.17;;;;;;;;;;5090022;28;20510;-67
2022/03/10 09:04:59;;;;;;;24.07;14.30;;;;;;;;;;5087368;28;20519;-68
2022/03/10 09:07:27;;;;;;;18.30;11.23;;;;;;;;;;5090338;28;20452;-68
2022/03/10 09:09:54;;;;;;;20.50;12.80;;;;;;;;;;5090908;28;20479;-68
2022/03/10 09:12:21;;;;;;;18.40;13.27;;;;;;;;;;5091161;28;20444;-68
2022/03/10 09:14:50;;;;;;;15.43;11.27;;;;;;;;;;5090769;28;20480;-67
2022/03/10 09:17:17;;;;;;;20.17;12.40;;;;;;;;;;5090707;28;20571;-67
2022/03/10 09:19:44;;;;;;;17.23;12.40;;;;;;;;;;5089938;28;20540;-68
2022/03/10 09:22:12;;;;;;;21.53;12.37;;;;;;;;;;5091109;28;20440;-67
2022/03/10 09:24:39;;;;;;;25.13;13.70;;;;;;;;;;5089977;28;20452;-67
2022/03/10 09:27:07;;;;;;;16.13;9.70;;;;;;;;;;5090826;28;20817;-68
2022/03/10 09:29:34;;;;;;;12.37;8.90;;;;;;;;;;5090253;28;20812;-68
2022/03/10 09:32:02;;;;;;;17.53;9.97;;;;;;;;;;5090869;28;20459;-68
2022/03/10 09:34:29;;;;;;;20.30;11.60;;;;;;;;;;5089620;28;20851;-68
2022/03/10 09:36:57;;;;;;;17.90;10.00;;;;;;;;;;5090332;28;20445;-68
2022/03/10 09:39:24;;;;;;;14.93;8.80;;;;;;;;;;5093255;28;20484;-68
2022/03/10 09:41:51;;;;;;;12.30;8.70;;;;;;;;;;5093959;28;20445;-68
2022/03/10 09:44:19;;;;;;;10.30;7.37;;;;;;;;;;5080531;28;20450;-68
2022/03/10 09:46:49;;;;;;;10.53;6.80;;;;;;;;;;5093422;28;20632;-68
2022/03/10 09:49:17;;;;;;;8.40;6.13;;;;;;;;;;5093915;28;20950;-68
2022/03/10 09:51:45;;;;;;;8.87;6.57;;;;;;;;;;5092938;28;20527;-68
2022/03/10 09:54:12;;;;;;;11.53;6.50;;;;;;;;;;5093619;28;20566;-68
2022/03/10 09:56:42;;;;;;;7.80;5.60;;;;;;;;;;5092988;28;20444;-68
2022/03/10 09:59:10;;;;;;;8.53;5.33;;;;;;;;;;5093629;28;20484;-68
2022/03/10 10:01:37;;;;;;;6.27;4.80;;;;;;;;;;5092686;28;20487;-68
2022/03/10 10:04:06;;;;;;;8.70;5.70;;;;;;;;;;5093117;28;20448;-68
2022/03/10 10:06:54;;;;;;;8.97;6.10;;;;;;;;;;5092929;28;20456;-68
2022/03/10 10:09:22;;;;;;;8.23;5.30;;;;;;;;;;5093703;28;20531;-68
2022/03/10 10:11:49;;;;;;;8.03;5.40;;;;;;;;;;5093426;28;20959;-68
2022/03/10 10:14:32;;;;;;;7.00;5.70;;;;;;;;;;5093513;28;20498;-68
2022/03/10 10:17:00;;;;;;;6.53;5.37;;;;;;;;;;5083088;28;20447;-68
2022/03/10 10:19:27;;;;;;;6.33;5.03;;;;;;;;;;5092802;28;20484;-67
2022/03/10 10:22:10;;;;;;;6.57;4.87;;;;;;;;;;5093943;28;20464;-66
2022/03/10 10:24:38;;;;;;;9.10;5.40;;;;;;;;;;5092677;28;20452;-66
2022/03/10 10:27:13;;;;;;;9.17;5.53;;;;;;;;;;5093153;28;20445;-67
2022/03/10 10:29:46;;;;;;;6.77;5.37;;;;;;;;;;5079490;28;20448;-69
2022/03/10 10:32:13;;;;;;;9.03;5.60;;;;;;;;;;5093050;28;20480;-66
2022/03/10 10:34:40;;;;;;;10.10;5.80;;;;;;;;;;5092438;28;20476;-66
2022/03/10 10:37:08;;;;;;;6.20;5.40;;;;;;;;;;5093104;28;20448;-67
2022/03/10 10:39:52;;;;;;;5.23;4.67;;;;;;;;;;5092027;28;21036;-67
2022/03/10 10:42:20;;;;;;;7.50;5.63;;;;;;;;;;5093113;28;20463;-67
2022/03/10 10:44:47;;;;;;;6.33;4.73;;;;;;;;;;5091791;28;20535;-67
2022/03/10 10:47:14;;;;;;;9.47;4.90;;;;;;;;;;5092856;28;20455;-69
2022/03/10 10:49:42;;;;;;;7.57;4.80;;;;;;;;;;5092154;28;20484;-67
2022/03/10 10:52:12;;;;;;;7.40;4.73;;;;;;;;;;5092572;28;20441;-67
2022/03/10 10:54:40;;;;;;;8.57;5.00;;;;;;;;;;5091886;28;20469;-67
2022/03/10 10:57:07;;;;;;;5.80;4.27;;;;;;;;;;5092428;28;20462;-67
2022/03/10 10:59:36;;;;;;;6.80;4.60;;;;;;;;;;5091952;28;20579;-67
2022/03/10 11:02:08;;;;;;;6.53;4.83;;;;;;;;;;5092621;28;20445;-69
2022/03/10 11:04:36;;;;;;;5.43;4.83;;;;;;;;;;5091426;28;20449;-67
2022/03/10 11:07:04;;;;;;;8.67;6.30;;;;;;;;;;5092806;28;20445;-68
2022/03/10 11:09:32;;;;;;;6.53;5.60;;;;;;;;;;5092096;28;20527;-68
2022/03/10 11:11:59;;;;;;;6.57;4.77;;;;;;;;;;5092317;28;20441;-68
2022/03/10 11:14:26;;;;;;;5.80;4.60;;;;;;;;;;5091681;28;20851;-69
2022/03/10 11:16:56;;;;;;;6.10;4.30;;;;;;;;;;5092307;28;20937;-68
2022/03/10 11:19:27;;;;;;;5.63;4.20;;;;;;;;;;5092493;28;20483;-68
2022/03/10 11:22:01;;;;;;;5.07;3.53;;;;;;;;;;5092986;28;20928;-69
2022/03/10 11:24:40;;;;;;;5.17;3.73;;;;;;;;;;5091874;28;20451;-68
2022/03/10 11:27:09;;;;;;;6.43;4.13;;;;;;;;;;5092305;28;20448;-69
2022/03/10 11:29:36;;;;;;;7.30;4.00;;;;;;;;;;5091925;28;20535;-68
2022/03/10 11:32:07;;;;;;;5.10;3.20;;;;;;;;;;5092279;28;20448;-67
2022/03/10 11:34:52;;;;;;;4.53;3.60;;;;;;;;;;5091251;28;20444;-69
2022/03/10 11:37:50;;;;;;;5.77;3.13;;;;;;;;;;5092369;28;20451;-70
2022/03/10 11:40:18;;;;;;;4.10;3.47;;;;;;;;;;5091877;28;20440;-68
2022/03/10 11:42:45;;;;;;;4.87;4.17;;;;;;;;;;5090953;28;20539;-67
2022/03/10 11:45:13;;;;;;;5.40;2.80;;;;;;;;;;5091565;28;20518;-67
2022/03/10 11:47:42;;;;;;;3.37;2.70;;;;;;;;;;5090817;28;20445;-68
2022/03/10 11:50:28;;;;;;;5.17;3.20;;;;;;;;;;5091544;28;20824;-67
2022/03/10 11:52:59;;;;;;;3.87;3.17;;;;;;;;;;5091247;28;20441;-67
2022/03/10 11:55:39;;;;;;;3.10;2.30;;;;;;;;;;5090596;28;20950;-67
2022/03/10 11:58:06;;;;;;;4.10;2.90;;;;;;;;;;5091487;28;20468;-67
2022/03/10 12:00:49;;;;;;;3.90;2.63;;;;;;;;;;5090108;28;20449;-68
2022/03/10 12:03:27;;;;;;;3.60;3.00;;;;;;;;;;5089243;28;20488;-67
2022/03/10 12:05:56;;;;;;;7.17;3.43;;;;;;;;;;5090998;28;20475;-67
2022/03/10 12:08:24;;;;;;;4.00;3.27;;;;;;;;;;5091864;28;20457;-67
2022/03/10 12:10:51;;;;;;;3.90;2.80;;;;;;;;;;5091939;28;20470;-67
2022/03/10 12:13:22;;;;;;;4.43;3.60;;;;;;;;;;5091649;28;20447;-67
2022/03/10 12:15:50;;;;;;;4.43;3.30;;;;;;;;;;5091217;28;20524;-68
2022/03/10 12:18:18;;;;;;;4.00;2.87;;;;;;;;;;5091556;28;20567;-67
2022/03/10 12:20:47;;;;;;;3.03;2.53;;;;;;;;;;5090707;28;20460;-68
2022/03/10 12:23:16;;;;;;;3.63;2.90;;;;;;;;;;5077979;28;20547;-67
2022/03/10 12:25:44;;;;;;;4.90;3.63;;;;;;;;;;5090248;28;20730;-67
2022/03/10 12:28:12;;;;;;;6.60;3.47;;;;;;;;;;5091360;28;20452;-68
2022/03/10 12:30:44;;;;;;;2.80;2.20;;;;;;;;;;5090557;28;20813;-67
2022/03/10 12:33:11;;;;;;;4.47;2.90;;;;;;;;;;5091424;28;20444;-68
2022/03/10 12:35:40;;;;;;;5.10;3.10;;;;;;;;;;5090492;28;20975;-68
2022/03/10 12:38:09;;;;;;;3.63;3.10;;;;;;;;;;5091117;28;20528;-68
2022/03/10 12:40:38;;;;;;;3.97;2.60;;;;;;;;;;5090025;28;20440;-68
2022/03/10 12:43:05;;;;;;;2.83;2.53;;;;;;;;;;5090695;28;20452;-67
2022/03/10 12:45:33;;;;;;;4.40;3.57;;;;;;;;;;5089962;28;20454;-68
2022/03/10 12:48:02;;;;;;;5.63;3.70;;;;;;;;;;5091050;28;20523;-68
2022/03/10 12:50:29;;;;;;;3.87;3.10;;;;;;;;;;5090203;28;20531;-68
2022/03/10 12:52:57;;;;;;;4.40;3.43;;;;;;;;;;5090624;28;20476;-68
2022/03/10 12:55:28;;;;;;;5.03;3.40;;;;;;;;;;5090181;28;20444;-67
2022/03/10 12:57:59;;;;;;;4.30;3.47;;;;;;;;;;5090788;28;20545;-68
2022/03/10 13:00:26;;;;;;;4.67;3.20;;;;;;;;;;5090349;28;20488;-68
2022/03/10 13:02:56;;;;;;;3.87;3.53;;;;;;;;;;5090517;28;20547;-68
2022/03/10 13:05:24;;;;;;;4.00;3.50;;;;;;;;;;5090112;28;20440;-68
2022/03/10 13:07:51;;;;;;;5.47;3.20;;;;;;;;;;5090569;28;20449;-68
2022/03/10 13:10:20;;;;;;;3.53;3.17;;;;;;;;;;5090869;28;20495;-69
2022/03/10 13:12:49;;;;;;;6.27;4.00;;;;;;;;;;5090123;28;20586;-68
2022/03/10 13:15:21;;;;;;;6.63;3.40;;;;;;;;;;5094542;28;20444;-68
2022/03/10 13:17:48;;;;;;;3.80;3.37;;;;;;;;;;5094057;28;20452;-69
2022/03/10 13:20:17;;;;;;;4.17;3.33;;;;;;;;;;5094234;28;20510;-68
2022/03/10 13:22:47;;;;;;;4.90;3.57;;;;;;;;;;5094037;28;20444;-69
2022/03/10 13:25:16;;;;;;;5.20;3.90;;;;;;;;;;5094343;28;20476;-67
2022/03/10 13:27:44;;;;;;;4.70;3.97;;;;;;;;;;5093944;28;20818;-67
2022/03/10 13:30:19;;;;;;;5.70;3.80;;;;;;;;;;5094954;28;20450;-68
2022/03/10 13:32:47;;;;;;;3.80;3.20;;;;;;;;;;5094164;28;20448;-67
2022/03/10 13:35:15;;;;;;;5.53;3.57;;;;;;;;;;5094483;28;20440;-67